Time,TemperatureF,DewpointF,PressureIn,WindDirection,WindDirectionDegrees,WindSpeedMPH,WindSpeedGustMPH,Humidity,HourlyPrecipIn,Conditions,Clouds,dailyrainin,SoftwareType,DateUTC
2013-05-30 00:01:00,78.1,72.1,30.08,ENE,57,1.0,13.0,82,0.00,,,0.01,meteohub,2013-05-30 04:01:00,
2013-05-30 00:02:00,78.1,72.1,30.08,East,85,3.0,13.0,82,0.00,,,0.01,meteohub,2013-05-30 04:02:00,
2013-05-30 00:05:00,78.1,72.1,30.08,ENE,57,7.0,13.0,82,0.00,,,0.01,meteohub,2013-05-30 04:05:00,
2013-05-30 00:08:00,78.1,72.1,30.08,ENE,68,7.0,14.0,82,0.00,,,0.00,meteohub,2013-05-30 04:08:00,
2013-05-30 00:13:00,78.1,72.1,30.08,ENE,59,7.0,14.0,82,0.00,,,0.00,meteohub,2013-05-30 04:13:00,
2013-05-30 00:18:00,78.1,72.5,30.09,ENE,70,8.0,18.0,83,0.00,,,0.00,meteohub,2013-05-30 04:18:00,
2013-05-30 00:24:00,78.1,72.5,30.08,ENE,76,1.0,18.0,83,0.00,,,0.00,meteohub,2013-05-30 04:24:00,
2013-05-30 00:29:00,78.1,72.5,30.08,ENE,64,8.0,14.0,83,0.00,,,0.00,meteohub,2013-05-30 04:29:00,
2013-05-30 00:34:00,77.9,72.3,30.08,ENE,74,4.0,15.0,83,0.00,,,0.00,meteohub,2013-05-30 04:34:00,
2013-05-30 00:39:00,77.7,72.1,30.08,ENE,73,11.0,15.0,83,0.00,,,0.00,meteohub,2013-05-30 04:39:00,
2013-05-30 00:44:00,77.7,72.1,30.08,East,82,3.0,15.0,83,0.00,,,0.00,meteohub,2013-05-30 04:44:00,
2013-05-30 00:49:00,77.7,72.1,30.08,ENE,64,7.0,16.0,83,0.00,,,0.00,meteohub,2013-05-30 04:49:00,
2013-05-30 00:54:00,77.7,72.5,30.08,ENE,67,5.0,16.0,84,0.00,,,0.00,meteohub,2013-05-30 04:54:00,
2013-05-30 00:59:00,77.5,72.3,30.08,ENE,76,10.0,15.0,84,0.00,,,0.00,meteohub,2013-05-30 04:59:00,
2013-05-30 01:04:00,77.5,72.3,30.08,ENE,62,4.0,16.0,84,0.00,,,0.00,meteohub,2013-05-30 05:04:00,
2013-05-30 01:09:00,77.5,72.3,30.08,ENE,75,3.0,16.0,84,0.00,,,0.00,meteohub,2013-05-30 05:09:00,
2013-05-30 01:14:00,77.5,72.3,30.08,ENE,62,10.0,16.0,84,0.00,,,0.00,meteohub,2013-05-30 05:14:00,
2013-05-30 01:19:00,77.5,72.3,30.08,ENE,76,4.0,15.0,84,0.00,,,0.00,meteohub,2013-05-30 05:19:00,
2013-05-30 01:24:00,77.5,72.3,30.07,ENE,58,4.0,15.0,84,0.00,,,0.00,meteohub,2013-05-30 05:24:00,
2013-05-30 01:29:00,77.5,72.3,30.07,ENE,76,8.0,15.0,84,0.00,,,0.00,meteohub,2013-05-30 05:29:00,
2013-05-30 01:35:00,77.4,72.1,30.07,ESE,104,12.0,16.0,84,0.00,,,0.00,meteohub,2013-05-30 05:35:00,
2013-05-30 01:40:00,77.4,72.1,30.07,ENE,76,3.0,16.0,84,0.00,,,0.00,meteohub,2013-05-30 05:40:00,
2013-05-30 01:45:00,77.4,72.1,30.07,ENE,74,3.0,16.0,84,0.00,,,0.00,meteohub,2013-05-30 05:45:00,
2013-05-30 01:50:00,77.4,72.1,30.07,ENE,74,3.0,14.0,84,0.00,,,0.00,meteohub,2013-05-30 05:50:00,
2013-05-30 01:55:00,77.4,72.1,30.07,ENE,69,12.0,16.0,84,0.00,,,0.00,meteohub,2013-05-30 05:55:00,
2013-05-30 02:00:00,77.4,72.5,30.07,East,96,9.0,16.0,85,0.00,,,0.00,meteohub,2013-05-30 06:00:00,
2013-05-30 02:05:00,77.2,72.0,30.07,ENE,67,5.0,16.0,84,0.00,,,0.00,meteohub,2013-05-30 06:05:00,
2013-05-30 02:10:00,77.2,72.3,30.06,ENE,62,7.0,16.0,85,0.00,,,0.00,meteohub,2013-05-30 06:10:00,
2013-05-30 02:15:00,77.2,72.3,30.06,ENE,59,4.0,16.0,85,0.00,,,0.00,meteohub,2013-05-30 06:15:00,
2013-05-30 02:21:00,77.2,72.3,30.06,NE,48,6.0,14.0,85,0.00,,,0.00,meteohub,2013-05-30 06:21:00,
2013-05-30 02:26:00,77.0,72.1,30.06,ENE,75,2.0,14.0,85,0.00,,,0.00,meteohub,2013-05-30 06:26:00,
2013-05-30 02:31:00,77.2,72.3,30.06,ENE,61,14.0,14.0,85,0.00,,,0.00,meteohub,2013-05-30 06:31:00,
2013-05-30 02:36:00,77.0,72.1,30.06,NE,50,3.0,14.0,85,0.00,,,0.00,meteohub,2013-05-30 06:36:00,
2013-05-30 02:42:00,77.0,72.1,30.06,ENE,78,14.0,14.0,85,0.00,,,0.00,meteohub,2013-05-30 06:42:00,
2013-05-30 02:47:00,77.0,72.1,30.06,East,80,5.0,14.0,85,0.00,,,0.00,meteohub,2013-05-30 06:47:00,
2013-05-30 02:52:00,76.8,72.0,30.06,ENE,64,5.0,17.0,85,0.00,,,0.00,meteohub,2013-05-30 06:52:00,
2013-05-30 02:57:00,76.8,72.0,30.06,ENE,76,11.0,17.0,85,0.00,,,0.00,meteohub,2013-05-30 06:57:00,
2013-05-30 03:02:00,76.8,72.0,30.06,East,98,9.0,17.0,85,0.00,,,0.00,meteohub,2013-05-30 07:02:00,
2013-05-30 03:07:00,76.8,72.3,30.06,East,79,8.0,16.0,86,0.00,,,0.00,meteohub,2013-05-30 07:07:00,
2013-05-30 03:12:00,76.8,72.3,30.06,ENE,67,7.0,16.0,86,0.00,,,0.00,meteohub,2013-05-30 07:12:00,
2013-05-30 03:17:00,76.6,72.1,30.06,NE,46,5.0,16.0,86,0.00,,,0.00,meteohub,2013-05-30 07:17:00,
2013-05-30 03:22:00,76.6,72.1,30.06,ENE,60,10.0,16.0,86,0.00,,,0.00,meteohub,2013-05-30 07:22:00,
2013-05-30 03:27:00,76.8,72.3,30.06,ENE,77,7.0,15.0,86,0.00,,,0.00,meteohub,2013-05-30 07:27:00,
2013-05-30 03:32:00,76.6,72.1,30.06,NE,46,5.0,15.0,86,0.00,,,0.00,meteohub,2013-05-30 07:32:00,
2013-05-30 03:37:00,76.6,72.1,30.06,ENE,59,7.0,15.0,86,0.00,,,0.00,meteohub,2013-05-30 07:37:00,
2013-05-30 03:42:00,76.6,72.1,30.06,ENE,73,3.0,15.0,86,0.00,,,0.00,meteohub,2013-05-30 07:42:00,
2013-05-30 03:47:00,76.6,72.1,30.05,East,80,2.0,15.0,86,0.00,,,0.00,meteohub,2013-05-30 07:47:00,
2013-05-30 03:52:00,76.6,72.1,30.05,East,84,8.0,13.0,86,0.00,,,0.00,meteohub,2013-05-30 07:52:00,
2013-05-30 03:57:00,76.6,72.1,30.06,ENE,70,2.0,14.0,86,0.00,,,0.00,meteohub,2013-05-30 07:57:00,
2013-05-30 04:02:00,76.5,72.0,30.06,East,80,6.0,14.0,86,0.00,,,0.00,meteohub,2013-05-30 08:02:00,
2013-05-30 04:07:00,76.5,72.0,30.06,ENE,76,4.0,16.0,86,0.00,,,0.00,meteohub,2013-05-30 08:07:00,
2013-05-30 04:12:00,76.5,72.0,30.06,ENE,64,4.0,16.0,86,0.00,,,0.00,meteohub,2013-05-30 08:12:00,
2013-05-30 04:17:00,76.3,72.1,30.06,ENE,61,4.0,16.0,87,0.00,,,0.00,meteohub,2013-05-30 08:17:00,
2013-05-30 04:22:00,76.3,72.1,30.06,ENE,73,4.0,16.0,87,0.00,,,0.00,meteohub,2013-05-30 08:22:00,
2013-05-30 04:27:00,76.5,72.3,30.05,East,80,7.0,13.0,87,0.00,,,0.00,meteohub,2013-05-30 08:27:00,
2013-05-30 04:32:00,76.5,72.3,30.05,ENE,75,4.0,14.0,87,0.00,,,0.00,meteohub,2013-05-30 08:32:00,
2013-05-30 04:37:00,76.5,72.3,30.05,East,99,7.0,14.0,87,0.00,,,0.00,meteohub,2013-05-30 08:37:00,
2013-05-30 04:42:00,76.5,72.3,30.05,East,80,5.0,15.0,87,0.00,,,0.00,meteohub,2013-05-30 08:42:00,
2013-05-30 04:47:00,76.5,72.3,30.05,ENE,71,4.0,15.0,87,0.00,,,0.00,meteohub,2013-05-30 08:47:00,
2013-05-30 04:52:00,76.5,72.3,30.05,ENE,68,5.0,15.0,87,0.00,,,0.00,meteohub,2013-05-30 08:52:00,
2013-05-30 04:57:00,76.5,72.3,30.05,ENE,68,5.0,16.0,87,0.00,,,0.00,meteohub,2013-05-30 08:57:00,
2013-05-30 05:02:00,76.5,72.3,30.05,ENE,68,5.0,16.0,87,0.00,,,0.00,meteohub,2013-05-30 09:02:00,
2013-05-30 05:07:00,76.3,71.8,30.05,NE,51,8.0,14.0,86,0.00,,,0.00,meteohub,2013-05-30 09:07:00,
2013-05-30 05:12:00,76.3,72.1,30.05,ENE,66,5.0,14.0,87,0.00,,,0.00,meteohub,2013-05-30 09:12:00,
2013-05-30 05:17:00,76.3,72.1,30.06,ENE,67,2.0,14.0,87,0.00,,,0.00,meteohub,2013-05-30 09:17:00,
2013-05-30 05:22:00,76.5,72.3,30.06,East,86,10.0,15.0,87,0.00,,,0.00,meteohub,2013-05-30 09:22:00,
2013-05-30 05:27:00,76.5,72.3,30.06,East,83,5.0,17.0,87,0.00,,,0.00,meteohub,2013-05-30 09:27:00,
2013-05-30 05:32:00,76.5,72.3,30.06,ENE,70,2.0,17.0,87,0.00,,,0.00,meteohub,2013-05-30 09:32:00,
2013-05-30 05:37:00,76.5,72.3,30.06,NE,54,3.0,17.0,87,0.00,,,0.00,meteohub,2013-05-30 09:37:00,
2013-05-30 05:42:00,76.3,72.1,30.06,ENE,57,1.0,13.0,87,0.00,,,0.00,meteohub,2013-05-30 09:42:00,
2013-05-30 05:47:00,76.1,72.0,30.06,ENE,57,2.0,13.0,87,0.00,,,0.00,meteohub,2013-05-30 09:47:00,
2013-05-30 05:52:00,75.9,71.8,30.06,NE,56,6.0,11.0,87,0.00,,,0.00,meteohub,2013-05-30 09:52:00,
2013-05-30 05:57:00,75.7,71.6,30.06,NE,55,4.0,9.0,87,0.00,,,0.00,meteohub,2013-05-30 09:57:00,
2013-05-30 06:02:00,75.6,71.8,30.06,NE,55,5.0,9.0,88,0.00,,,0.00,meteohub,2013-05-30 10:02:00,
2013-05-30 06:07:00,75.4,71.6,30.06,NE,55,2.0,9.0,88,0.00,,,0.00,meteohub,2013-05-30 10:07:00,
2013-05-30 06:12:00,75.4,71.6,30.07,NE,55,2.0,9.0,88,0.00,,,0.00,meteohub,2013-05-30 10:12:00,
2013-05-30 06:17:00,75.2,71.4,30.07,ENE,59,0.0,9.0,88,0.00,,,0.00,meteohub,2013-05-30 10:17:00,
2013-05-30 06:22:00,75.2,71.4,30.07,ENE,59,1.0,9.0,88,0.00,,,0.00,meteohub,2013-05-30 10:22:00,
2013-05-30 06:27:00,75.0,71.2,30.07,ENE,59,3.0,9.0,88,0.00,,,0.00,meteohub,2013-05-30 10:27:00,
2013-05-30 06:32:00,75.0,71.6,30.07,ENE,58,7.0,9.0,89,0.00,,,0.00,meteohub,2013-05-30 10:32:00,
2013-05-30 06:37:00,75.2,71.8,30.07,ENE,59,0.0,9.0,89,0.00,,,0.00,meteohub,2013-05-30 10:37:00,
2013-05-30 06:42:00,75.2,71.8,30.07,NE,51,1.0,9.0,89,0.00,,,0.00,meteohub,2013-05-30 10:42:00,
2013-05-30 06:47:00,75.2,71.8,30.07,ENE,60,1.0,9.0,89,0.00,,,0.00,meteohub,2013-05-30 10:47:00,
2013-05-30 06:52:00,75.0,71.6,30.07,ENE,63,0.0,14.0,89,0.00,,,0.00,meteohub,2013-05-30 10:52:00,
2013-05-30 06:57:00,75.0,71.2,30.07,ENE,62,3.0,14.0,88,0.00,,,0.00,meteohub,2013-05-30 10:57:00,
2013-05-30 07:02:00,75.2,71.8,30.07,ENE,59,2.0,14.0,89,0.00,,,0.00,meteohub,2013-05-30 11:02:00,
2013-05-30 07:07:00,75.4,71.6,30.07,NE,55,6.0,10.0,88,0.00,,,0.00,meteohub,2013-05-30 11:07:00,
2013-05-30 07:12:00,75.4,71.6,30.07,ENE,57,2.0,10.0,88,0.00,,,0.00,meteohub,2013-05-30 11:12:00,
2013-05-30 07:17:00,75.6,71.8,30.07,ENE,59,8.0,10.0,88,0.00,,,0.00,meteohub,2013-05-30 11:17:00,
2013-05-30 07:22:00,75.7,72.0,30.07,ENE,58,5.0,10.0,88,0.00,,,0.00,meteohub,2013-05-30 11:22:00,
2013-05-30 07:27:00,75.9,71.8,30.08,ENE,65,3.0,10.0,87,0.00,,,0.00,meteohub,2013-05-30 11:27:00,
2013-05-30 07:32:00,76.3,72.1,30.08,NE,55,2.0,12.0,87,0.00,,,0.00,meteohub,2013-05-30 11:32:00,
2013-05-30 07:37:00,76.6,72.1,30.08,ENE,63,10.0,12.0,86,0.00,,,0.00,meteohub,2013-05-30 11:37:00,
2013-05-30 07:42:00,76.8,72.3,30.08,ENE,65,5.0,13.0,86,0.00,,,0.00,meteohub,2013-05-30 11:42:00,
2013-05-30 07:47:00,76.8,72.0,30.08,ENE,64,3.0,13.0,85,0.00,,,0.00,meteohub,2013-05-30 11:47:00,
2013-05-30 07:52:00,77.2,72.3,30.09,ENE,69,8.0,13.0,85,0.00,,,0.00,meteohub,2013-05-30 11:52:00,
2013-05-30 07:57:00,77.2,72.3,30.09,ENE,70,4.0,12.0,85,0.00,,,0.00,meteohub,2013-05-30 11:57:00,
2013-05-30 08:02:00,77.0,71.8,30.09,ENE,62,1.0,15.0,84,0.00,,,0.00,meteohub,2013-05-30 12:02:00,
2013-05-30 08:07:00,77.2,72.0,30.09,ENE,70,2.0,15.0,84,0.00,,,0.00,meteohub,2013-05-30 12:07:00,
2013-05-30 08:12:00,77.5,72.3,30.09,ENE,78,10.0,15.0,84,0.00,,,0.00,meteohub,2013-05-30 12:12:00,
2013-05-30 08:17:00,77.5,72.3,30.08,ENE,71,1.0,13.0,84,0.00,,,0.00,meteohub,2013-05-30 12:17:00,
2013-05-30 08:22:00,78.1,72.5,30.08,East,82,5.0,13.0,83,0.00,,,0.00,meteohub,2013-05-30 12:22:00,
2013-05-30 08:27:00,78.4,72.5,30.09,NNE,27,5.0,13.0,82,0.00,,,0.00,meteohub,2013-05-30 12:27:00,
2013-05-30 08:32:00,78.6,72.7,30.08,ENE,61,8.0,14.0,82,0.00,,,0.00,meteohub,2013-05-30 12:32:00,
2013-05-30 08:37:00,79.0,72.7,30.08,ENE,71,7.0,14.0,81,0.00,,,0.00,meteohub,2013-05-30 12:37:00,
2013-05-30 08:42:00,79.2,72.9,30.08,ENE,75,4.0,16.0,81,0.00,,,0.00,meteohub,2013-05-30 12:42:00,
2013-05-30 08:47:00,79.2,72.9,30.08,East,96,5.0,16.0,81,0.00,,,0.00,meteohub,2013-05-30 12:47:00,
2013-05-30 08:52:00,79.5,72.9,30.08,East,98,8.0,14.0,80,0.00,,,0.00,meteohub,2013-05-30 12:52:00,
2013-05-30 08:57:00,79.9,72.9,30.08,East,80,2.0,14.0,79,0.00,,,0.00,meteohub,2013-05-30 12:57:00,
2013-05-30 09:02:00,80.2,73.0,30.09,East,79,10.0,14.0,79,0.00,,,0.00,meteohub,2013-05-30 13:02:00,
2013-05-30 09:07:00,80.4,73.2,30.09,ENE,58,7.0,14.0,79,0.00,,,0.00,meteohub,2013-05-30 13:07:00,
2013-05-30 09:12:00,80.6,73.0,30.09,ENE,64,3.0,15.0,78,0.00,,,0.00,meteohub,2013-05-30 13:12:00,
2013-05-30 09:17:00,80.6,72.7,30.09,ESE,105,8.0,15.0,77,0.00,,,0.00,meteohub,2013-05-30 13:17:00,
2013-05-30 09:22:00,80.4,72.9,30.09,East,99,13.0,15.0,78,0.00,,,0.00,meteohub,2013-05-30 13:22:00,
2013-05-30 09:27:00,80.2,72.7,30.09,East,85,13.0,18.0,78,0.00,,,0.00,meteohub,2013-05-30 13:27:00,
2013-05-30 09:32:00,80.1,72.5,30.09,ENE,76,5.0,18.0,78,0.00,,,0.00,meteohub,2013-05-30 13:32:00,
2013-05-30 09:38:00,80.8,72.9,30.09,East,92,9.0,18.0,77,0.00,,,0.00,meteohub,2013-05-30 13:38:00,
2013-05-30 09:43:00,81.0,72.3,30.09,ENE,69,5.0,16.0,75,0.00,,,0.00,meteohub,2013-05-30 13:43:00,
2013-05-30 09:48:00,81.1,71.6,30.09,East,97,15.0,16.0,73,0.00,,,0.00,meteohub,2013-05-30 13:48:00,
2013-05-30 09:53:00,81.5,72.0,30.09,ENE,72,17.0,19.0,73,0.00,,,0.00,meteohub,2013-05-30 13:53:00,
2013-05-30 09:58:00,81.9,72.3,30.09,East,90,11.0,19.0,73,0.00,,,0.00,meteohub,2013-05-30 13:58:00,
2013-05-30 10:03:00,82.0,72.5,30.09,East,94,11.0,19.0,73,0.00,,,0.00,meteohub,2013-05-30 14:03:00,
2013-05-30 10:08:00,82.4,72.0,30.09,East,80,14.0,18.0,71,0.00,,,0.00,meteohub,2013-05-30 14:08:00,
2013-05-30 10:14:00,82.8,71.6,30.09,ENE,74,9.0,20.0,69,0.00,,,0.00,meteohub,2013-05-30 14:14:00,
2013-05-30 10:19:00,82.9,72.1,30.09,East,83,9.0,20.0,70,0.00,,,0.00,meteohub,2013-05-30 14:19:00,
2013-05-30 10:24:00,83.3,72.5,30.09,ENE,63,8.0,20.0,70,0.00,,,0.00,meteohub,2013-05-30 14:24:00,
2013-05-30 10:29:00,83.5,71.8,30.08,NE,53,10.0,19.0,68,0.00,,,0.00,meteohub,2013-05-30 14:29:00,
2013-05-30 10:35:00,83.7,72.3,30.09,East,84,10.0,21.0,69,0.00,,,0.00,meteohub,2013-05-30 14:35:00,
2013-05-30 10:40:00,83.7,72.0,30.09,NE,43,7.0,21.0,68,0.00,,,0.00,meteohub,2013-05-30 14:40:00,
2013-05-30 10:45:00,84.0,72.7,30.08,East,80,17.0,21.0,69,0.00,,,0.00,meteohub,2013-05-30 14:45:00,
2013-05-30 10:50:00,84.2,72.9,30.09,ENE,67,12.0,18.0,69,0.00,,,0.00,meteohub,2013-05-30 14:50:00,
2013-05-30 10:55:00,84.4,73.0,30.09,ENE,78,11.0,17.0,69,0.00,,,0.00,meteohub,2013-05-30 14:55:00,
2013-05-30 11:00:00,84.6,72.9,30.09,ENE,71,15.0,19.0,68,0.00,,,0.00,meteohub,2013-05-30 15:00:00,
2013-05-30 11:06:00,84.6,73.2,30.08,ENE,73,17.0,24.0,69,0.00,,,0.00,meteohub,2013-05-30 15:06:00,
2013-05-30 11:11:00,84.6,73.2,30.09,East,87,11.0,24.0,69,0.00,,,0.00,meteohub,2013-05-30 15:11:00,
2013-05-30 11:16:00,84.9,74.1,30.08,ENE,74,2.0,24.0,70,0.00,,,0.00,meteohub,2013-05-30 15:16:00,
2013-05-30 11:21:00,85.5,74.1,30.08,East,86,8.0,18.0,69,0.00,,,0.00,meteohub,2013-05-30 15:21:00,
2013-05-30 11:26:00,85.6,73.4,30.08,ENE,68,12.0,15.0,67,0.00,,,0.00,meteohub,2013-05-30 15:26:00,
2013-05-30 11:31:00,86.0,74.1,30.08,ENE,64,9.0,18.0,68,0.00,,,0.00,meteohub,2013-05-30 15:31:00,
2013-05-30 11:36:00,86.2,74.3,30.08,East,93,15.0,18.0,68,0.00,,,0.00,meteohub,2013-05-30 15:36:00,
2013-05-30 11:41:00,86.2,73.4,30.08,ESE,103,13.0,15.0,66,0.00,,,0.00,meteohub,2013-05-30 15:41:00,
2013-05-30 11:46:00,86.4,73.6,30.08,East,94,13.0,21.0,66,0.00,,,0.00,meteohub,2013-05-30 15:46:00,
2013-05-30 11:51:00,86.7,73.6,30.08,ENE,66,10.0,21.0,65,0.00,,,0.00,meteohub,2013-05-30 15:51:00,
2013-05-30 11:57:00,86.5,73.8,30.08,ENE,74,11.0,21.0,66,0.00,,,0.00,meteohub,2013-05-30 15:57:00,
2013-05-30 12:02:00,86.2,73.4,30.07,ENE,60,10.0,20.0,66,0.00,,,0.00,meteohub,2013-05-30 16:02:00,
2013-05-30 12:07:00,86.7,73.9,30.07,ENE,75,9.0,18.0,66,0.00,,,0.00,meteohub,2013-05-30 16:07:00,
2013-05-30 12:12:00,86.7,73.9,30.07,ENE,59,9.0,18.0,66,0.00,,,0.00,meteohub,2013-05-30 16:12:00,
2013-05-30 12:17:00,87.3,75.0,30.07,ENE,71,4.0,18.0,67,0.00,,,0.00,meteohub,2013-05-30 16:17:00,
2013-05-30 12:22:00,87.4,74.7,30.06,ENE,63,9.0,18.0,66,0.00,,,0.00,meteohub,2013-05-30 16:22:00,
2013-05-30 12:27:00,86.5,73.8,30.06,East,81,9.0,20.0,66,0.00,,,0.00,meteohub,2013-05-30 16:27:00,
2013-05-30 12:32:00,86.2,73.9,30.06,ENE,78,11.0,20.0,67,0.00,,,0.00,meteohub,2013-05-30 16:32:00,
2013-05-30 12:37:00,86.9,74.1,30.06,East,101,8.0,18.0,66,0.00,,,0.00,meteohub,2013-05-30 16:37:00,
2013-05-30 12:43:00,87.8,75.4,30.06,ENE,76,2.0,18.0,67,0.00,,,0.00,meteohub,2013-05-30 16:43:00,
2013-05-30 12:48:00,88.3,74.7,30.06,ENE,58,7.0,16.0,64,0.00,,,0.00,meteohub,2013-05-30 16:48:00,
2013-05-30 12:53:00,88.5,74.3,30.06,ENE,71,2.0,17.0,63,0.00,,,0.00,meteohub,2013-05-30 16:53:00,
2013-05-30 12:58:00,89.2,75.4,30.06,East,98,6.0,17.0,64,0.00,,,0.00,meteohub,2013-05-30 16:58:00,
2013-05-30 13:04:00,89.4,74.7,30.05,East,84,7.0,17.0,62,0.00,,,0.00,meteohub,2013-05-30 17:04:00,
2013-05-30 13:09:00,89.4,74.7,30.05,ENE,63,12.0,13.0,62,0.00,,,0.00,meteohub,2013-05-30 17:09:00,
2013-05-30 13:14:00,89.6,74.8,30.06,East,88,14.0,16.0,62,0.00,,,0.00,meteohub,2013-05-30 17:14:00,
2013-05-30 13:19:00,89.8,74.5,30.06,NE,44,20.0,20.0,61,0.00,,,0.00,meteohub,2013-05-30 17:19:00,
2013-05-30 13:25:00,89.8,73.6,30.06,ENE,72,5.0,18.0,59,0.00,,,0.00,meteohub,2013-05-30 17:25:00,
2013-05-30 13:30:00,89.4,73.2,30.06,ENE,57,4.0,24.0,59,0.00,,,0.00,meteohub,2013-05-30 17:30:00,
2013-05-30 13:35:00,90.0,73.8,30.06,NE,44,4.0,24.0,59,0.00,,,0.00,meteohub,2013-05-30 17:35:00,
2013-05-30 13:40:00,89.1,75.2,30.06,NE,34,14.0,24.0,64,0.00,,,0.00,meteohub,2013-05-30 17:40:00,
2013-05-30 13:45:00,86.4,73.2,30.06,East,80,15.0,24.0,65,0.00,,,0.00,meteohub,2013-05-30 17:45:00,
2013-05-30 13:50:00,85.5,73.8,30.06,NE,49,10.0,27.0,68,0.00,,,0.00,meteohub,2013-05-30 17:50:00,
2013-05-30 13:55:00,85.5,73.8,30.06,East,81,14.0,27.0,68,0.00,,,0.00,meteohub,2013-05-30 17:55:00,
2013-05-30 14:00:00,85.3,73.0,30.06,ESE,102,10.0,26.0,67,0.00,,,0.00,meteohub,2013-05-30 18:00:00,
2013-05-30 14:05:00,84.7,73.0,30.06,East,95,15.0,24.0,68,0.00,,,0.00,meteohub,2013-05-30 18:05:00,
2013-05-30 14:10:00,85.3,73.0,30.06,NE,52,7.0,24.0,67,0.00,,,0.00,meteohub,2013-05-30 18:10:00,
2013-05-30 14:16:00,85.3,73.0,30.06,ENE,57,9.0,24.0,67,0.00,,,0.00,meteohub,2013-05-30 18:16:00,
2013-05-30 14:21:00,84.6,72.3,30.06,ENE,62,11.0,23.0,67,0.00,,,0.00,meteohub,2013-05-30 18:21:00,
2013-05-30 14:26:00,84.0,72.0,30.06,ENE,66,9.0,19.0,67,0.00,,,0.00,meteohub,2013-05-30 18:26:00,
2013-05-30 14:31:00,84.6,72.9,30.06,East,92,14.0,19.0,68,0.00,,,0.00,meteohub,2013-05-30 18:31:00,
2013-05-30 14:36:00,84.7,72.5,30.06,ENE,60,9.0,19.0,67,0.00,,,0.00,meteohub,2013-05-30 18:36:00,
2013-05-30 14:42:00,84.7,72.5,30.06,ENE,66,7.0,19.0,67,0.00,,,0.00,meteohub,2013-05-30 18:42:00,
2013-05-30 14:47:00,84.6,72.9,30.05,NE,55,7.0,15.0,68,0.00,,,0.00,meteohub,2013-05-30 18:47:00,
2013-05-30 14:52:00,84.6,72.9,30.05,ENE,74,9.0,18.0,68,0.00,,,0.00,meteohub,2013-05-30 18:52:00,
2013-05-30 14:57:00,84.9,73.2,30.05,ENE,71,4.0,18.0,68,0.00,,,0.00,meteohub,2013-05-30 18:57:00,
2013-05-30 15:02:00,85.6,73.9,30.05,ENE,67,7.0,16.0,68,0.00,,,0.00,meteohub,2013-05-30 19:02:00,
2013-05-30 15:07:00,86.2,73.4,30.04,ENE,68,9.0,15.0,66,0.00,,,0.00,meteohub,2013-05-30 19:07:00,
2013-05-30 15:12:00,87.1,74.3,30.04,NE,46,6.0,15.0,66,0.00,,,0.00,meteohub,2013-05-30 19:12:00,
2013-05-30 15:17:00,87.3,73.6,30.04,NE,54,7.0,15.0,64,0.00,,,0.00,meteohub,2013-05-30 19:17:00,
2013-05-30 15:22:00,88.0,74.3,30.04,ENE,71,2.0,15.0,64,0.00,,,0.00,meteohub,2013-05-30 19:22:00,
2013-05-30 15:27:00,87.6,73.9,30.04,NNE,25,7.0,18.0,64,0.00,,,0.00,meteohub,2013-05-30 19:27:00,
2013-05-30 15:32:00,87.1,73.9,30.04,ENE,78,8.0,18.0,65,0.00,,,0.00,meteohub,2013-05-30 19:32:00,
2013-05-30 15:37:00,87.1,74.3,30.03,East,88,10.0,18.0,66,0.00,,,0.00,meteohub,2013-05-30 19:37:00,
2013-05-30 15:42:00,87.4,74.3,30.03,ENE,71,8.0,17.0,65,0.00,,,0.00,meteohub,2013-05-30 19:42:00,
2013-05-30 15:47:00,87.6,74.3,30.03,ENE,73,9.0,17.0,65,0.00,,,0.00,meteohub,2013-05-30 19:47:00,
2013-05-30 15:52:00,88.0,74.7,30.03,ENE,62,4.0,16.0,65,0.00,,,0.00,meteohub,2013-05-30 19:52:00,
2013-05-30 15:57:00,87.8,74.5,30.03,NE,56,2.0,15.0,65,0.00,,,0.00,meteohub,2013-05-30 19:57:00,
2013-05-30 16:02:00,87.4,74.3,30.03,NE,38,6.0,15.0,65,0.00,,,0.00,meteohub,2013-05-30 20:02:00,
2013-05-30 16:07:00,87.1,73.9,30.02,ENE,71,21.0,21.0,65,0.00,,,0.00,meteohub,2013-05-30 20:07:00,
2013-05-30 16:12:00,87.1,73.9,30.02,East,91,14.0,21.0,65,0.00,,,0.00,meteohub,2013-05-30 20:12:00,
2013-05-30 16:17:00,86.9,74.1,30.02,NE,56,11.0,22.0,66,0.00,,,0.00,meteohub,2013-05-30 20:17:00,
2013-05-30 16:22:00,87.1,73.4,30.02,NE,37,10.0,22.0,64,0.00,,,0.00,meteohub,2013-05-30 20:22:00,
2013-05-30 16:27:00,87.3,74.1,30.02,ENE,75,9.0,22.0,65,0.00,,,0.00,meteohub,2013-05-30 20:27:00,
2013-05-30 16:32:00,86.7,73.0,30.01,NE,44,11.0,19.0,64,0.00,,,0.00,meteohub,2013-05-30 20:32:00,
2013-05-30 16:37:00,86.5,73.4,30.01,ENE,69,15.0,19.0,65,0.00,,,0.00,meteohub,2013-05-30 20:37:00,
2013-05-30 16:42:00,86.5,72.9,30.02,ENE,61,7.0,19.0,64,0.00,,,0.00,meteohub,2013-05-30 20:42:00,
2013-05-30 16:47:00,87.3,73.0,30.02,ESE,105,5.0,19.0,63,0.00,,,0.00,meteohub,2013-05-30 20:47:00,
2013-05-30 16:52:00,87.4,73.8,30.02,East,92,8.0,19.0,64,0.00,,,0.00,meteohub,2013-05-30 20:52:00,
2013-05-30 16:57:00,88.0,72.9,30.01,ENE,62,4.0,17.0,61,0.00,,,0.00,meteohub,2013-05-30 20:57:00,
2013-05-30 17:02:00,87.6,73.9,30.01,ENE,61,7.0,18.0,64,0.00,,,0.00,meteohub,2013-05-30 21:02:00,
2013-05-30 17:07:00,87.6,73.0,30.02,ENE,76,11.0,18.0,62,0.00,,,0.00,meteohub,2013-05-30 21:07:00,
2013-05-30 17:12:00,87.1,73.4,30.02,ENE,75,7.0,18.0,64,0.00,,,0.00,meteohub,2013-05-30 21:12:00,
2013-05-30 17:17:00,86.4,73.2,30.02,NE,53,12.0,18.0,65,0.00,,,0.00,meteohub,2013-05-30 21:17:00,
2013-05-30 17:22:00,86.4,73.2,30.02,ENE,69,14.0,18.0,65,0.00,,,0.00,meteohub,2013-05-30 21:22:00,
2013-05-30 17:27:00,85.8,73.6,30.02,East,82,18.0,19.0,67,0.00,,,0.00,meteohub,2013-05-30 21:27:00,
2013-05-30 17:32:00,85.1,72.9,30.02,East,82,3.0,22.0,67,0.00,,,0.00,meteohub,2013-05-30 21:32:00,
2013-05-30 17:37:00,84.7,73.0,30.02,East,84,14.0,22.0,68,0.00,,,0.00,meteohub,2013-05-30 21:37:00,
2013-05-30 17:43:00,84.4,72.7,30.02,NNE,19,11.0,22.0,68,0.00,,,0.00,meteohub,2013-05-30 21:43:00,
2013-05-30 17:48:00,84.6,72.3,30.02,ENE,69,16.0,22.0,67,0.00,,,0.00,meteohub,2013-05-30 21:48:00,
2013-05-30 17:53:00,84.4,72.1,30.02,ENE,78,13.0,22.0,67,0.00,,,0.00,meteohub,2013-05-30 21:53:00,
2013-05-30 17:58:00,84.4,72.7,30.02,East,81,17.0,22.0,68,0.00,,,0.00,meteohub,2013-05-30 21:58:00,
2013-05-30 18:03:00,84.0,72.7,30.02,ENE,67,14.0,24.0,69,0.00,,,0.00,meteohub,2013-05-30 22:03:00,
2013-05-30 18:08:00,83.5,70.9,30.02,NE,52,11.0,24.0,66,0.00,,,0.00,meteohub,2013-05-30 22:08:00,
2013-05-30 18:13:00,83.5,70.5,30.01,ENE,57,8.0,23.0,65,0.00,,,0.00,meteohub,2013-05-30 22:13:00,
2013-05-30 18:18:00,83.7,70.2,30.01,East,79,14.0,25.0,64,0.00,,,0.00,meteohub,2013-05-30 22:18:00,
2013-05-30 18:23:00,83.8,70.3,30.01,East,81,14.0,25.0,64,0.00,,,0.00,meteohub,2013-05-30 22:23:00,
2013-05-30 18:28:00,83.7,70.7,30.01,East,88,6.0,25.0,65,0.00,,,0.00,meteohub,2013-05-30 22:28:00,
2013-05-30 18:33:00,83.7,71.6,30.01,ENE,74,12.0,27.0,67,0.00,,,0.00,meteohub,2013-05-30 22:33:00,
2013-05-30 18:39:00,83.7,72.3,30.01,NNE,21,9.0,27.0,69,0.00,,,0.00,meteohub,2013-05-30 22:39:00,
2013-05-30 18:44:00,83.8,72.1,30.02,ENE,63,8.0,27.0,68,0.00,,,0.00,meteohub,2013-05-30 22:44:00,
2013-05-30 18:49:00,83.8,71.8,30.02,ENE,72,10.0,21.0,67,0.00,,,0.00,meteohub,2013-05-30 22:49:00,
2013-05-30 18:54:00,83.5,71.8,30.02,East,92,10.0,21.0,68,0.00,,,0.00,meteohub,2013-05-30 22:54:00,
2013-05-30 18:59:00,83.7,72.0,30.02,ENE,76,10.0,19.0,68,0.00,,,0.00,meteohub,2013-05-30 22:59:00,
2013-05-30 19:04:00,83.7,72.9,30.02,ESE,106,9.0,20.0,70,0.00,,,0.00,meteohub,2013-05-30 23:04:00,
2013-05-30 19:09:00,83.3,72.5,30.03,ENE,76,13.0,24.0,70,0.00,,,0.00,meteohub,2013-05-30 23:09:00,
2013-05-30 19:14:00,83.1,72.3,30.03,East,90,10.0,24.0,70,0.00,,,0.00,meteohub,2013-05-30 23:14:00,
2013-05-30 19:19:00,83.1,72.0,30.03,NE,41,9.0,18.0,69,0.00,,,0.00,meteohub,2013-05-30 23:19:00,
2013-05-30 19:24:00,83.1,72.3,30.03,ENE,78,3.0,18.0,70,0.00,,,0.00,meteohub,2013-05-30 23:24:00,
2013-05-30 19:29:00,83.3,72.5,30.03,East,82,9.0,18.0,70,0.00,,,0.00,meteohub,2013-05-30 23:29:00,
2013-05-30 19:34:00,83.1,72.7,30.04,ENE,65,8.0,17.0,71,0.00,,,0.00,meteohub,2013-05-30 23:34:00,
2013-05-30 19:40:00,83.1,72.3,30.04,ENE,63,5.0,16.0,70,0.00,,,0.00,meteohub,2013-05-30 23:40:00,
2013-05-30 19:45:00,82.9,72.5,30.04,ENE,69,4.0,16.0,71,0.00,,,0.00,meteohub,2013-05-30 23:45:00,
2013-05-30 19:50:00,82.9,73.0,30.04,ENE,76,3.0,15.0,72,0.00,,,0.00,meteohub,2013-05-30 23:50:00,
2013-05-30 19:55:00,82.6,72.7,30.04,ENE,67,7.0,14.0,72,0.00,,,0.00,meteohub,2013-05-30 23:55:00,
2013-05-30 20:00:00,82.6,72.7,30.04,East,88,6.0,14.0,72,0.00,,,0.00,meteohub,2013-05-31 00:00:00,
2013-05-30 20:05:00,82.4,72.0,30.04,East,81,11.0,16.0,71,0.00,,,0.00,meteohub,2013-05-31 00:05:00,
2013-05-30 20:10:00,82.4,72.9,30.04,East,100,9.0,18.0,73,0.00,,,0.00,meteohub,2013-05-31 00:10:00,
2013-05-30 20:15:00,82.0,71.8,30.04,ENE,65,5.0,18.0,71,0.00,,,0.00,meteohub,2013-05-31 00:15:00,
2013-05-30 20:20:00,82.2,72.0,30.04,East,80,11.0,18.0,71,0.00,,,0.00,meteohub,2013-05-31 00:20:00,
2013-05-30 20:25:00,82.2,71.1,30.05,ENE,57,9.0,17.0,69,0.00,,,0.00,meteohub,2013-05-31 00:25:00,
2013-05-30 20:30:00,82.0,70.9,30.05,ENE,76,10.0,19.0,69,0.00,,,0.00,meteohub,2013-05-31 00:30:00,
2013-05-30 20:35:00,82.0,71.8,30.04,ENE,78,13.0,19.0,71,0.00,,,0.00,meteohub,2013-05-31 00:35:00,
2013-05-30 20:41:00,81.9,71.1,30.04,ENE,73,9.0,19.0,70,0.00,,,0.00,meteohub,2013-05-31 00:41:00,
2013-05-30 20:46:00,81.7,71.4,30.04,East,90,9.0,20.0,71,0.00,,,0.00,meteohub,2013-05-31 00:46:00,
2013-05-30 20:51:00,81.9,72.0,30.04,ENE,74,5.0,20.0,72,0.00,,,0.00,meteohub,2013-05-31 00:51:00,
2013-05-30 20:56:00,81.5,71.2,30.04,ENE,64,7.0,17.0,71,0.00,,,0.00,meteohub,2013-05-31 00:56:00,
2013-05-30 21:01:00,81.3,71.4,30.04,ENE,67,16.0,17.0,72,0.00,,,0.00,meteohub,2013-05-31 01:01:00,
2013-05-30 21:06:00,81.3,71.4,30.04,NNE,15,8.0,25.0,72,0.00,,,0.00,meteohub,2013-05-31 01:06:00,
2013-05-30 21:11:00,81.3,71.8,30.05,East,80,8.0,25.0,73,0.00,,,0.00,meteohub,2013-05-31 01:11:00,
2013-05-30 21:16:00,81.1,72.1,30.05,NE,49,11.0,18.0,74,0.00,,,0.00,meteohub,2013-05-31 01:16:00,
2013-05-30 21:21:00,81.1,72.1,30.05,East,84,6.0,19.0,74,0.00,,,0.00,meteohub,2013-05-31 01:21:00,
2013-05-30 21:26:00,81.0,72.0,30.05,ENE,68,7.0,19.0,74,0.00,,,0.00,meteohub,2013-05-31 01:26:00,
2013-05-30 21:31:00,80.8,71.2,30.05,NE,56,4.0,23.0,73,0.00,,,0.00,meteohub,2013-05-31 01:31:00,
2013-05-30 21:36:00,80.8,71.2,30.06,East,101,10.0,23.0,73,0.00,,,0.00,meteohub,2013-05-31 01:36:00,
2013-05-30 21:42:00,80.6,71.1,30.06,ENE,76,11.0,19.0,73,0.00,,,0.00,meteohub,2013-05-31 01:42:00,
2013-05-30 21:47:00,80.4,71.4,30.06,ENE,64,3.0,19.0,74,0.00,,,0.00,meteohub,2013-05-31 01:47:00,
2013-05-30 21:52:00,80.4,71.8,30.06,East,82,2.0,19.0,75,0.00,,,0.00,meteohub,2013-05-31 01:52:00,
2013-05-30 21:57:00,80.2,71.6,30.06,ENE,71,7.0,17.0,75,0.00,,,0.00,meteohub,2013-05-31 01:57:00,
2013-05-30 22:02:00,80.2,71.6,30.06,NE,47,4.0,16.0,75,0.00,,,0.00,meteohub,2013-05-31 02:02:00,
2013-05-30 22:07:00,80.2,71.6,30.06,NE,56,7.0,16.0,75,0.00,,,0.00,meteohub,2013-05-31 02:07:00,
2013-05-30 22:12:00,80.1,71.4,30.06,East,88,10.0,16.0,75,0.00,,,0.00,meteohub,2013-05-31 02:12:00,
2013-05-30 22:17:00,79.9,70.9,30.06,ENE,70,5.0,17.0,74,0.00,,,0.00,meteohub,2013-05-31 02:17:00,
2013-05-30 22:22:00,79.9,70.9,30.06,East,85,9.0,22.0,74,0.00,,,0.00,meteohub,2013-05-31 02:22:00,
2013-05-30 22:27:00,79.7,70.3,30.06,ESE,114,9.0,22.0,73,0.00,,,0.00,meteohub,2013-05-31 02:27:00,
2013-05-30 22:32:00,79.7,70.3,30.06,ESE,107,5.0,22.0,73,0.00,,,0.00,meteohub,2013-05-31 02:32:00,
2013-05-30 22:37:00,79.5,70.5,30.07,ENE,60,13.0,20.0,74,0.00,,,0.00,meteohub,2013-05-31 02:37:00,
2013-05-30 22:42:00,79.5,70.2,30.07,East,80,17.0,22.0,73,0.00,,,0.00,meteohub,2013-05-31 02:42:00,
2013-05-30 22:47:00,79.3,70.0,30.07,NE,46,6.0,22.0,73,0.00,,,0.00,meteohub,2013-05-31 02:47:00,
2013-05-30 22:52:00,79.3,70.3,30.07,ENE,76,13.0,22.0,74,0.00,,,0.00,meteohub,2013-05-31 02:52:00,
2013-05-30 22:57:00,79.2,70.2,30.08,East,96,11.0,19.0,74,0.00,,,0.00,meteohub,2013-05-31 02:57:00,
2013-05-30 23:02:00,79.2,70.5,30.08,ENE,69,10.0,18.0,75,0.00,,,0.00,meteohub,2013-05-31 03:02:00,
2013-05-30 23:07:00,79.0,70.3,30.09,NE,44,8.0,15.0,75,0.00,,,0.00,meteohub,2013-05-31 03:07:00,
2013-05-30 23:12:00,79.0,70.0,30.08,ENE,73,13.0,18.0,74,0.00,,,0.00,meteohub,2013-05-31 03:12:00,
2013-05-30 23:17:00,78.8,69.8,30.09,ENE,65,5.0,18.0,74,0.00,,,0.00,meteohub,2013-05-31 03:17:00,
2013-05-30 23:22:00,78.8,70.2,30.09,ENE,59,11.0,17.0,75,0.00,,,0.00,meteohub,2013-05-31 03:22:00,
2013-05-30 23:27:00,78.8,70.5,30.08,ENE,71,15.0,17.0,76,0.00,,,0.00,meteohub,2013-05-31 03:27:00,
2013-05-30 23:32:00,78.6,70.0,30.09,ENE,58,7.0,19.0,75,0.00,,,0.00,meteohub,2013-05-31 03:32:00,
2013-05-30 23:37:00,78.6,70.0,30.08,ENE,74,10.0,21.0,75,0.00,,,0.00,meteohub,2013-05-31 03:37:00,
2013-05-30 23:42:00,78.6,70.3,30.09,ESE,106,12.0,21.0,76,0.00,,,0.00,meteohub,2013-05-31 03:42:00,
2013-05-30 23:47:00,78.4,70.2,30.08,East,81,6.0,21.0,76,0.00,,,0.00,meteohub,2013-05-31 03:47:00,
2013-05-30 23:52:00,78.4,70.2,30.09,East,84,16.0,19.0,76,0.00,,,0.00,meteohub,2013-05-31 03:52:00,
2013-05-30 23:57:00,78.4,70.7,30.09,East,84,7.0,17.0,77,0.00,,,0.00,meteohub,2013-05-31 03:57:00,